sensor_id;sensor_type;location;lat;lon;timestamp;temperature;humidity
42199;DHT22;27868;45.184;5.786;2023-04-03T00:01:52;11.60;95.20
42199;DHT22;27868;45.184;5.786;2023-04-03T00:04:36;11.60;95.20
42199;DHT22;27868;45.184;5.786;2023-04-03T00:07:21;11.70;95.30
42199;DHT22;27868;45.184;5.786;2023-04-03T00:10:06;11.60;95.30
42199;DHT22;27868;45.184;5.786;2023-04-03T00:12:51;11.60;95.30
42199;DHT22;27868;45.184;5.786;2023-04-03T00:15:35;11.60;95.40
42199;DHT22;27868;45.184;5.786;2023-04-03T00:18:20;11.60;95.40
42199;DHT22;27868;45.184;5.786;2023-04-03T00:21:05;11.60;95.50
42199;DHT22;27868;45.184;5.786;2023-04-03T00:23:50;11.50;95.50
42199;DHT22;27868;45.184;5.786;2023-04-03T00:26:35;11.50;95.50
42199;DHT22;27868;45.184;5.786;2023-04-03T00:29:19;11.50;95.50
42199;DHT22;27868;45.184;5.786;2023-04-03T00:32:04;11.60;95.50
42199;DHT22;27868;45.184;5.786;2023-04-03T00:34:48;11.50;95.50
42199;DHT22;27868;45.184;5.786;2023-04-03T00:37:33;11.60;95.50
42199;DHT22;27868;45.184;5.786;2023-04-03T00:40:18;11.50;95.50
42199;DHT22;27868;45.184;5.786;2023-04-03T00:43:05;11.50;95.50
42199;DHT22;27868;45.184;5.786;2023-04-03T00:45:57;11.50;95.50
42199;DHT22;27868;45.184;5.786;2023-04-03T00:48:43;11.50;95.50
42199;DHT22;27868;45.184;5.786;2023-04-03T00:51:29;11.40;95.50
42199;DHT22;27868;45.184;5.786;2023-04-03T00:54:13;11.50;95.60
42199;DHT22;27868;45.184;5.786;2023-04-03T00:56:58;11.50;95.60
42199;DHT22;27868;45.184;5.786;2023-04-03T00:59:44;11.50;95.60
42199;DHT22;27868;45.184;5.786;2023-04-03T01:02:31;11.50;95.60
42199;DHT22;27868;45.184;5.786;2023-04-03T01:05:15;11.50;95.70
42199;DHT22;27868;45.184;5.786;2023-04-03T01:08:00;11.50;95.70
42199;DHT22;27868;45.184;5.786;2023-04-03T01:10:45;11.50;95.80
42199;DHT22;27868;45.184;5.786;2023-04-03T01:13:31;11.50;95.80
42199;DHT22;27868;45.184;5.786;2023-04-03T01:16:16;11.50;95.80
42199;DHT22;27868;45.184;5.786;2023-04-03T01:19:00;11.50;95.80
42199;DHT22;27868;45.184;5.786;2023-04-03T01:24:35;11.50;95.80
42199;DHT22;27868;45.184;5.786;2023-04-03T01:27:20;11.50;95.90
42199;DHT22;27868;45.184;5.786;2023-04-03T01:30:05;11.50;95.90
42199;DHT22;27868;45.184;5.786;2023-04-03T01:32:49;11.50;96.00
42199;DHT22;27868;45.184;5.786;2023-04-03T01:35:34;11.40;95.90
42199;DHT22;27868;45.184;5.786;2023-04-03T01:38:19;11.50;95.90
42199;DHT22;27868;45.184;5.786;2023-04-03T01:41:03;11.50;96.00
42199;DHT22;27868;45.184;5.786;2023-04-03T01:43:48;11.50;96.00
42199;DHT22;27868;45.184;5.786;2023-04-03T01:46:33;11.50;96.00
42199;DHT22;27868;45.184;5.786;2023-04-03T01:49:17;11.40;96.00
42199;DHT22;27868;45.184;5.786;2023-04-03T01:52:02;11.50;96.10
42199;DHT22;27868;45.184;5.786;2023-04-03T01:54:46;11.40;96.10
42199;DHT22;27868;45.184;5.786;2023-04-03T01:57:31;11.40;96.10
42199;DHT22;27868;45.184;5.786;2023-04-03T02:00:15;11.40;96.10
42199;DHT22;27868;45.184;5.786;2023-04-03T02:03:00;11.40;96.10
42199;DHT22;27868;45.184;5.786;2023-04-03T02:05:45;11.40;96.10
42199;DHT22;27868;45.184;5.786;2023-04-03T02:08:29;11.40;96.20
42199;DHT22;27868;45.184;5.786;2023-04-03T02:11:14;11.40;96.10
42199;DHT22;27868;45.184;5.786;2023-04-03T02:13:59;11.40;96.20
42199;DHT22;27868;45.184;5.786;2023-04-03T02:16:43;11.40;96.20
42199;DHT22;27868;45.184;5.786;2023-04-03T02:19:28;11.40;96.20
42199;DHT22;27868;45.184;5.786;2023-04-03T02:22:13;11.40;96.20
42199;DHT22;27868;45.184;5.786;2023-04-03T02:24:57;11.40;96.20
42199;DHT22;27868;45.184;5.786;2023-04-03T02:27:41;11.40;96.20
42199;DHT22;27868;45.184;5.786;2023-04-03T02:30:26;11.40;96.30
42199;DHT22;27868;45.184;5.786;2023-04-03T02:33:10;11.40;96.30
42199;DHT22;27868;45.184;5.786;2023-04-03T02:35:55;11.40;96.30
42199;DHT22;27868;45.184;5.786;2023-04-03T02:38:40;11.30;96.30
42199;DHT22;27868;45.184;5.786;2023-04-03T02:41:25;11.30;96.30
42199;DHT22;27868;45.184;5.786;2023-04-03T02:44:12;11.40;96.40
42199;DHT22;27868;45.184;5.786;2023-04-03T02:46:56;11.30;96.50
42199;DHT22;27868;45.184;5.786;2023-04-03T02:49:41;11.40;96.40
42199;DHT22;27868;45.184;5.786;2023-04-03T02:52:27;11.30;96.30
42199;DHT22;27868;45.184;5.786;2023-04-03T02:55:13;11.30;96.30
42199;DHT22;27868;45.184;5.786;2023-04-03T02:57:58;11.40;96.30
42199;DHT22;27868;45.184;5.786;2023-04-03T03:00:42;11.40;96.30
42199;DHT22;27868;45.184;5.786;2023-04-03T03:03:27;11.40;96.30
42199;DHT22;27868;45.184;5.786;2023-04-03T03:06:13;11.40;96.30
42199;DHT22;27868;45.184;5.786;2023-04-03T03:08:59;11.40;96.30
42199;DHT22;27868;45.184;5.786;2023-04-03T03:11:44;11.40;96.30
42199;DHT22;27868;45.184;5.786;2023-04-03T03:14:28;11.40;96.30
42199;DHT22;27868;45.184;5.786;2023-04-03T03:17:13;11.40;96.30
42199;DHT22;27868;45.184;5.786;2023-04-03T03:19:58;11.40;96.40
42199;DHT22;27868;45.184;5.786;2023-04-03T03:22:42;11.30;96.40
42199;DHT22;27868;45.184;5.786;2023-04-03T03:25:27;11.30;96.40
42199;DHT22;27868;45.184;5.786;2023-04-03T03:28:11;11.30;96.40
42199;DHT22;27868;45.184;5.786;2023-04-03T03:30:56;11.30;96.40
42199;DHT22;27868;45.184;5.786;2023-04-03T03:33:41;11.30;96.40
42199;DHT22;27868;45.184;5.786;2023-04-03T03:36:26;11.30;96.50
42199;DHT22;27868;45.184;5.786;2023-04-03T03:39:12;11.30;96.50
42199;DHT22;27868;45.184;5.786;2023-04-03T03:41:57;11.30;96.50
42199;DHT22;27868;45.184;5.786;2023-04-03T03:44:41;11.30;96.50
42199;DHT22;27868;45.184;5.786;2023-04-03T03:47:26;11.30;96.50
42199;DHT22;27868;45.184;5.786;2023-04-03T03:50:10;11.30;96.50
42199;DHT22;27868;45.184;5.786;2023-04-03T03:52:55;11.30;96.60
42199;DHT22;27868;45.184;5.786;2023-04-03T03:55:39;11.30;96.60
42199;DHT22;27868;45.184;5.786;2023-04-03T03:58:24;11.30;96.60
42199;DHT22;27868;45.184;5.786;2023-04-03T04:01:09;11.20;96.60
42199;DHT22;27868;45.184;5.786;2023-04-03T04:03:53;11.20;96.60
42199;DHT22;27868;45.184;5.786;2023-04-03T04:06:39;11.20;96.60
42199;DHT22;27868;45.184;5.786;2023-04-03T04:09:23;11.30;96.60
42199;DHT22;27868;45.184;5.786;2023-04-03T04:12:08;11.20;96.60
42199;DHT22;27868;45.184;5.786;2023-04-03T04:14:52;11.20;96.60
42199;DHT22;27868;45.184;5.786;2023-04-03T04:17:37;11.20;96.60
42199;DHT22;27868;45.184;5.786;2023-04-03T04:20:21;11.30;96.60
42199;DHT22;27868;45.184;5.786;2023-04-03T04:23:06;11.20;96.60
42199;DHT22;27868;45.184;5.786;2023-04-03T04:25:51;11.20;96.60
42199;DHT22;27868;45.184;5.786;2023-04-03T04:28:35;11.20;96.60
42199;DHT22;27868;45.184;5.786;2023-04-03T04:31:20;11.30;96.60
42199;DHT22;27868;45.184;5.786;2023-04-03T04:34:04;11.30;96.60
42199;DHT22;27868;45.184;5.786;2023-04-03T04:36:49;11.20;96.60
42199;DHT22;27868;45.184;5.786;2023-04-03T04:39:34;11.20;96.60
42199;DHT22;27868;45.184;5.786;2023-04-03T04:42:19;11.20;96.50
42199;DHT22;27868;45.184;5.786;2023-04-03T04:45:03;11.20;96.60
42199;DHT22;27868;45.184;5.786;2023-04-03T04:47:47;11.20;96.60
42199;DHT22;27868;45.184;5.786;2023-04-03T04:50:32;11.10;96.60
42199;DHT22;27868;45.184;5.786;2023-04-03T04:53:17;11.20;96.60
42199;DHT22;27868;45.184;5.786;2023-04-03T04:56:01;11.20;96.60
42199;DHT22;27868;45.184;5.786;2023-04-03T04:58:46;11.20;96.70
42199;DHT22;27868;45.184;5.786;2023-04-03T05:01:30;11.20;96.70
42199;DHT22;27868;45.184;5.786;2023-04-03T05:04:15;11.10;96.70
42199;DHT22;27868;45.184;5.786;2023-04-03T05:06:59;11.20;96.70
42199;DHT22;27868;45.184;5.786;2023-04-03T05:09:44;11.10;96.70
42199;DHT22;27868;45.184;5.786;2023-04-03T05:12:29;11.10;96.70
42199;DHT22;27868;45.184;5.786;2023-04-03T05:15:13;11.10;96.80
42199;DHT22;27868;45.184;5.786;2023-04-03T05:17:58;11.10;96.80
42199;DHT22;27868;45.184;5.786;2023-04-03T05:20:42;11.10;96.80
42199;DHT22;27868;45.184;5.786;2023-04-03T05:23:27;11.20;96.80
42199;DHT22;27868;45.184;5.786;2023-04-03T05:26:12;11.10;96.80
42199;DHT22;27868;45.184;5.786;2023-04-03T05:28:56;11.10;96.90
42199;DHT22;27868;45.184;5.786;2023-04-03T05:31:41;11.10;96.90
42199;DHT22;27868;45.184;5.786;2023-04-03T05:34:25;11.20;96.90
42199;DHT22;27868;45.184;5.786;2023-04-03T05:37:10;11.10;97.00
42199;DHT22;27868;45.184;5.786;2023-04-03T05:39:54;11.10;97.00
42199;DHT22;27868;45.184;5.786;2023-04-03T05:42:39;11.10;97.10
42199;DHT22;27868;45.184;5.786;2023-04-03T05:45:24;11.10;97.10
42199;DHT22;27868;45.184;5.786;2023-04-03T05:48:08;11.10;97.10
42199;DHT22;27868;45.184;5.786;2023-04-03T05:50:53;11.10;97.20
42199;DHT22;27868;45.184;5.786;2023-04-03T05:53:37;11.10;97.20
42199;DHT22;27868;45.184;5.786;2023-04-03T05:56:22;11.10;97.20
42199;DHT22;27868;45.184;5.786;2023-04-03T05:59:07;11.10;97.10
42199;DHT22;27868;45.184;5.786;2023-04-03T06:01:51;11.20;97.20
42199;DHT22;27868;45.184;5.786;2023-04-03T06:04:36;11.20;97.20
42199;DHT22;27868;45.184;5.786;2023-04-03T06:07:21;11.20;97.10
42199;DHT22;27868;45.184;5.786;2023-04-03T06:10:07;11.30;97.10
42199;DHT22;27868;45.184;5.786;2023-04-03T06:12:52;11.30;97.10
42199;DHT22;27868;45.184;5.786;2023-04-03T06:15:36;11.30;97.00
42199;DHT22;27868;45.184;5.786;2023-04-03T06:18:22;11.40;97.00
42199;DHT22;27868;45.184;5.786;2023-04-03T06:21:06;11.40;97.00
42199;DHT22;27868;45.184;5.786;2023-04-03T06:23:52;11.40;97.00
42199;DHT22;27868;45.184;5.786;2023-04-03T06:26:36;11.40;97.00
42199;DHT22;27868;45.184;5.786;2023-04-03T06:29:21;11.60;97.00
42199;DHT22;27868;45.184;5.786;2023-04-03T06:32:05;11.40;96.80
42199;DHT22;27868;45.184;5.786;2023-04-03T06:34:50;11.50;96.80
42199;DHT22;27868;45.184;5.786;2023-04-03T06:37:35;11.50;96.70
42199;DHT22;27868;45.184;5.786;2023-04-03T06:40:21;11.50;96.60
42199;DHT22;27868;45.184;5.786;2023-04-03T06:43:06;11.50;96.50
42199;DHT22;27868;45.184;5.786;2023-04-03T06:45:51;11.60;96.50
42199;DHT22;27868;45.184;5.786;2023-04-03T06:48:36;11.60;96.60
42199;DHT22;27868;45.184;5.786;2023-04-03T06:51:24;11.80;96.70
42199;DHT22;27868;45.184;5.786;2023-04-03T06:54:09;11.70;96.70
42199;DHT22;27868;45.184;5.786;2023-04-03T06:56:54;11.70;96.70
42199;DHT22;27868;45.184;5.786;2023-04-03T06:59:38;11.80;96.70
42199;DHT22;27868;45.184;5.786;2023-04-03T07:02:23;11.80;96.40
42199;DHT22;27868;45.184;5.786;2023-04-03T07:05:08;11.70;96.20
42199;DHT22;27868;45.184;5.786;2023-04-03T07:07:52;11.80;96.20
42199;DHT22;27868;45.184;5.786;2023-04-03T07:10:37;11.80;96.00
42199;DHT22;27868;45.184;5.786;2023-04-03T07:13:22;11.80;96.10
42199;DHT22;27868;45.184;5.786;2023-04-03T07:16:06;11.80;96.20
42199;DHT22;27868;45.184;5.786;2023-04-03T07:18:51;11.90;96.30
42199;DHT22;27868;45.184;5.786;2023-04-03T07:21:36;11.90;95.80
42199;DHT22;27868;45.184;5.786;2023-04-03T07:24:20;12.00;96.20
42199;DHT22;27868;45.184;5.786;2023-04-03T07:27:05;12.00;96.00
42199;DHT22;27868;45.184;5.786;2023-04-03T07:29:50;12.10;95.90
42199;DHT22;27868;45.184;5.786;2023-04-03T07:32:34;12.10;95.60
42199;DHT22;27868;45.184;5.786;2023-04-03T07:35:19;12.10;95.30
42199;DHT22;27868;45.184;5.786;2023-04-03T07:38:04;12.10;95.30
42199;DHT22;27868;45.184;5.786;2023-04-03T07:40:48;12.10;95.50
42199;DHT22;27868;45.184;5.786;2023-04-03T07:43:33;12.30;95.40
42199;DHT22;27868;45.184;5.786;2023-04-03T07:46:18;12.20;95.30
42199;DHT22;27868;45.184;5.786;2023-04-03T07:49:03;12.20;95.20
42199;DHT22;27868;45.184;5.786;2023-04-03T07:51:47;12.30;95.30
42199;DHT22;27868;45.184;5.786;2023-04-03T07:54:32;12.30;95.30
42199;DHT22;27868;45.184;5.786;2023-04-03T07:57:17;12.40;95.50
42199;DHT22;27868;45.184;5.786;2023-04-03T08:00:03;12.40;95.40
42199;DHT22;27868;45.184;5.786;2023-04-03T08:02:48;12.50;95.50
42199;DHT22;27868;45.184;5.786;2023-04-03T08:05:38;12.50;95.40
42199;DHT22;27868;45.184;5.786;2023-04-03T08:08:23;12.60;95.40
42199;DHT22;27868;45.184;5.786;2023-04-03T08:11:07;12.70;95.10
42199;DHT22;27868;45.184;5.786;2023-04-03T08:13:53;12.70;95.00
42199;DHT22;27868;45.184;5.786;2023-04-03T08:16:37;12.70;94.80
42199;DHT22;27868;45.184;5.786;2023-04-03T08:19:21;12.80;94.50
42199;DHT22;27868;45.184;5.786;2023-04-03T08:22:06;12.90;94.50
42199;DHT22;27868;45.184;5.786;2023-04-03T08:24:50;12.90;94.50
42199;DHT22;27868;45.184;5.786;2023-04-03T08:27:35;13.00;94.50
42199;DHT22;27868;45.184;5.786;2023-04-03T08:30:20;13.00;94.40
42199;DHT22;27868;45.184;5.786;2023-04-03T08:33:04;13.00;94.20
42199;DHT22;27868;45.184;5.786;2023-04-03T08:35:49;13.00;94.10
42199;DHT22;27868;45.184;5.786;2023-04-03T08:38:33;13.00;93.60
42199;DHT22;27868;45.184;5.786;2023-04-03T08:44:17;13.10;93.70
42199;DHT22;27868;45.184;5.786;2023-04-03T08:50:15;13.20;93.40
42199;DHT22;27868;45.184;5.786;2023-04-03T08:53:01;13.20;93.50
42199;DHT22;27868;45.184;5.786;2023-04-03T08:55:49;13.40;93.20
42199;DHT22;27868;45.184;5.786;2023-04-03T09:01:51;13.50;92.40
42199;DHT22;27868;45.184;5.786;2023-04-03T09:04:36;13.60;93.30
42199;DHT22;27868;45.184;5.786;2023-04-03T09:07:36;13.50;92.60
42199;DHT22;27868;45.184;5.786;2023-04-03T09:10:24;13.60;93.20
42199;DHT22;27868;45.184;5.786;2023-04-03T09:15:53;13.80;92.60
42199;DHT22;27868;45.184;5.786;2023-04-03T09:18:40;13.90;92.00
42199;DHT22;27868;45.184;5.786;2023-04-03T09:21:34;13.90;92.40
42199;DHT22;27868;45.184;5.786;2023-04-03T09:24:20;14.00;91.90
42199;DHT22;27868;45.184;5.786;2023-04-03T09:27:08;14.00;91.90
42199;DHT22;27868;45.184;5.786;2023-04-03T09:29:54;14.10;92.10
42199;DHT22;27868;45.184;5.786;2023-04-03T09:32:39;14.10;92.10
42199;DHT22;27868;45.184;5.786;2023-04-03T09:35:34;14.20;91.90
42199;DHT22;27868;45.184;5.786;2023-04-03T09:38:20;14.20;91.40
42199;DHT22;27868;45.184;5.786;2023-04-03T09:41:15;14.20;91.20
42199;DHT22;27868;45.184;5.786;2023-04-03T09:44:00;14.10;91.10
42199;DHT22;27868;45.184;5.786;2023-04-03T09:46:45;14.20;91.30
42199;DHT22;27868;45.184;5.786;2023-04-03T09:49:30;14.10;91.40
42199;DHT22;27868;45.184;5.786;2023-04-03T09:52:25;14.00;91.50
42199;DHT22;27868;45.184;5.786;2023-04-03T09:55:16;14.10;91.60
42199;DHT22;27868;45.184;5.786;2023-04-03T09:58:02;14.10;91.40
42199;DHT22;27868;45.184;5.786;2023-04-03T10:00:53;14.10;91.30
42199;DHT22;27868;45.184;5.786;2023-04-03T10:03:38;14.10;91.40
42199;DHT22;27868;45.184;5.786;2023-04-03T10:06:25;14.10;91.40
42199;DHT22;27868;45.184;5.786;2023-04-03T10:09:19;14.10;91.20
42199;DHT22;27868;45.184;5.786;2023-04-03T10:20:35;14.20;91.30
42199;DHT22;27868;45.184;5.786;2023-04-03T10:23:27;14.20;91.00
42199;DHT22;27868;45.184;5.786;2023-04-03T10:29:02;14.20;90.20
42199;DHT22;27868;45.184;5.786;2023-04-03T10:35:08;14.30;91.00
42199;DHT22;27868;45.184;5.786;2023-04-03T10:38:01;14.50;91.00
42199;DHT22;27868;45.184;5.786;2023-04-03T10:47:16;14.70;90.60
42199;DHT22;27868;45.184;5.786;2023-04-03T10:58:33;14.90;90.20
42199;DHT22;27868;45.184;5.786;2023-04-03T11:01:19;15.00;89.90
42199;DHT22;27868;45.184;5.786;2023-04-03T11:04:05;15.10;89.70
42199;DHT22;27868;45.184;5.786;2023-04-03T11:06:51;15.10;89.90
42199;DHT22;27868;45.184;5.786;2023-04-03T11:09:37;15.20;89.30
42199;DHT22;27868;45.184;5.786;2023-04-03T11:15:17;15.40;87.40
42199;DHT22;27868;45.184;5.786;2023-04-03T11:18:13;15.40;85.90
42199;DHT22;27868;45.184;5.786;2023-04-03T11:21:04;15.50;85.00
42199;DHT22;27868;45.184;5.786;2023-04-03T11:23:51;15.50;85.70
42199;DHT22;27868;45.184;5.786;2023-04-03T11:26:37;15.50;85.80
42199;DHT22;27868;45.184;5.786;2023-04-03T11:29:24;15.50;85.40
42199;DHT22;27868;45.184;5.786;2023-04-03T11:32:27;15.50;85.40
42199;DHT22;27868;45.184;5.786;2023-04-03T11:35:14;15.50;85.90
42199;DHT22;27868;45.184;5.786;2023-04-03T11:37:59;15.60;85.80
42199;DHT22;27868;45.184;5.786;2023-04-03T11:40:44;15.70;85.50
42199;DHT22;27868;45.184;5.786;2023-04-03T11:43:30;15.80;84.50
42199;DHT22;27868;45.184;5.786;2023-04-03T11:46:15;15.80;84.70
42199;DHT22;27868;45.184;5.786;2023-04-03T11:49:03;15.90;80.90
42199;DHT22;27868;45.184;5.786;2023-04-03T11:51:47;16.10;83.90
42199;DHT22;27868;45.184;5.786;2023-04-03T11:54:50;16.20;79.00
42199;DHT22;27868;45.184;5.786;2023-04-03T12:03:33;16.50;78.90
42199;DHT22;27868;45.184;5.786;2023-04-03T12:09:04;16.30;75.80
42199;DHT22;27868;45.184;5.786;2023-04-03T12:21:09;16.50;76.70
42199;DHT22;27868;45.184;5.786;2023-04-03T12:24:04;16.60;78.00
42199;DHT22;27868;45.184;5.786;2023-04-03T12:30:12;16.60;77.50
42199;DHT22;27868;45.184;5.786;2023-04-03T12:33:05;16.20;74.30
42199;DHT22;27868;45.184;5.786;2023-04-03T12:35:57;16.20;73.50
42199;DHT22;27868;45.184;5.786;2023-04-03T12:41:50;16.10;73.00
42199;DHT22;27868;45.184;5.786;2023-04-03T12:44:45;16.10;74.70
42199;DHT22;27868;45.184;5.786;2023-04-03T12:47:35;16.00;72.30
42199;DHT22;27868;45.184;5.786;2023-04-03T12:50:32;16.10;71.10
42199;DHT22;27868;45.184;5.786;2023-04-03T12:53:21;16.00;70.40
42199;DHT22;27868;45.184;5.786;2023-04-03T12:59:16;16.00;73.40
42199;DHT22;27868;45.184;5.786;2023-04-03T13:02:01;16.10;70.50
42199;DHT22;27868;45.184;5.786;2023-04-03T13:04:46;15.90;67.80
42199;DHT22;27868;45.184;5.786;2023-04-03T13:07:34;15.90;71.60
42199;DHT22;27868;45.184;5.786;2023-04-03T13:10:22;15.80;71.50
42199;DHT22;27868;45.184;5.786;2023-04-03T13:13:07;15.80;72.90
42199;DHT22;27868;45.184;5.786;2023-04-03T13:15:52;15.80;73.30
42199;DHT22;27868;45.184;5.786;2023-04-03T13:18:38;15.80;74.30
42199;DHT22;27868;45.184;5.786;2023-04-03T13:21:24;15.70;72.10
42199;DHT22;27868;45.184;5.786;2023-04-03T13:24:09;15.80;73.80
42199;DHT22;27868;45.184;5.786;2023-04-03T13:26:54;15.80;72.40
42199;DHT22;27868;45.184;5.786;2023-04-03T13:29:39;15.80;72.80
42199;DHT22;27868;45.184;5.786;2023-04-03T13:32:24;15.60;67.20
42199;DHT22;27868;45.184;5.786;2023-04-03T13:41:05;15.70;71.60
42199;DHT22;27868;45.184;5.786;2023-04-03T13:44:22;15.50;68.70
42199;DHT22;27868;45.184;5.786;2023-04-03T13:50:00;15.60;70.20
42199;DHT22;27868;45.184;5.786;2023-04-03T13:52:49;15.50;70.10
42199;DHT22;27868;45.184;5.786;2023-04-03T13:55:36;15.50;71.60
42199;DHT22;27868;45.184;5.786;2023-04-03T13:58:30;15.60;71.50
42199;DHT22;27868;45.184;5.786;2023-04-03T14:04:01;15.50;69.40
42199;DHT22;27868;45.184;5.786;2023-04-03T14:06:46;15.50;70.90
42199;DHT22;27868;45.184;5.786;2023-04-03T14:09:31;15.50;70.20
42199;DHT22;27868;45.184;5.786;2023-04-03T14:15:04;15.40;70.60
42199;DHT22;27868;45.184;5.786;2023-04-03T14:17:52;15.40;69.60
42199;DHT22;27868;45.184;5.786;2023-04-03T14:20:37;15.40;69.80
42199;DHT22;27868;45.184;5.786;2023-04-03T14:23:21;15.40;70.70
42199;DHT22;27868;45.184;5.786;2023-04-03T14:26:13;15.40;69.00
42199;DHT22;27868;45.184;5.786;2023-04-03T14:28:58;15.40;69.30
42199;DHT22;27868;45.184;5.786;2023-04-03T14:31:43;15.40;71.40
42199;DHT22;27868;45.184;5.786;2023-04-03T14:34:28;15.30;66.50
42199;DHT22;27868;45.184;5.786;2023-04-03T14:37:14;15.30;70.10
42199;DHT22;27868;45.184;5.786;2023-04-03T14:40:00;15.40;69.80
42199;DHT22;27868;45.184;5.786;2023-04-03T14:42:44;15.30;69.00
42199;DHT22;27868;45.184;5.786;2023-04-03T14:45:31;15.40;68.80
42199;DHT22;27868;45.184;5.786;2023-04-03T14:48:23;15.30;67.80
42199;DHT22;27868;45.184;5.786;2023-04-03T14:51:12;15.30;67.50
42199;DHT22;27868;45.184;5.786;2023-04-03T14:53:57;15.30;69.90
42199;DHT22;27868;45.184;5.786;2023-04-03T14:56:42;15.30;68.40
42199;DHT22;27868;45.184;5.786;2023-04-03T14:59:28;15.30;70.40
42199;DHT22;27868;45.184;5.786;2023-04-03T15:05:02;15.20;67.90
42199;DHT22;27868;45.184;5.786;2023-04-03T15:07:49;15.30;67.90
42199;DHT22;27868;45.184;5.786;2023-04-03T15:10:34;15.20;67.90
42199;DHT22;27868;45.184;5.786;2023-04-03T15:13:19;15.20;67.70
42199;DHT22;27868;45.184;5.786;2023-04-03T15:16:04;15.20;66.50
42199;DHT22;27868;45.184;5.786;2023-04-03T15:18:49;15.20;66.90
42199;DHT22;27868;45.184;5.786;2023-04-03T15:21:34;15.10;63.70
42199;DHT22;27868;45.184;5.786;2023-04-03T15:24:19;15.00;67.00
42199;DHT22;27868;45.184;5.786;2023-04-03T15:27:04;15.10;68.20
42199;DHT22;27868;45.184;5.786;2023-04-03T15:29:48;15.00;67.90
42199;DHT22;27868;45.184;5.786;2023-04-03T15:32:33;15.10;66.20
42199;DHT22;27868;45.184;5.786;2023-04-03T15:35:18;15.10;69.00
42199;DHT22;27868;45.184;5.786;2023-04-03T15:38:03;15.10;67.70
42199;DHT22;27868;45.184;5.786;2023-04-03T15:40:47;15.00;65.70
42199;DHT22;27868;45.184;5.786;2023-04-03T15:43:32;14.80;66.40
42199;DHT22;27868;45.184;5.786;2023-04-03T15:46:17;14.90;69.00
42199;DHT22;27868;45.184;5.786;2023-04-03T15:49:02;14.90;69.80
42199;DHT22;27868;45.184;5.786;2023-04-03T15:51:46;14.80;67.60
42199;DHT22;27868;45.184;5.786;2023-04-03T15:54:31;14.60;67.20
42199;DHT22;27868;45.184;5.786;2023-04-03T15:57:15;14.60;69.10
42199;DHT22;27868;45.184;5.786;2023-04-03T16:00:00;14.60;68.00
42199;DHT22;27868;45.184;5.786;2023-04-03T16:02:45;14.70;70.20
42199;DHT22;27868;45.184;5.786;2023-04-03T16:05:30;14.80;68.20
42199;DHT22;27868;45.184;5.786;2023-04-03T16:08:15;14.70;68.30
42199;DHT22;27868;45.184;5.786;2023-04-03T16:11:02;14.70;66.60
42199;DHT22;27868;45.184;5.786;2023-04-03T16:13:46;14.70;67.90
42199;DHT22;27868;45.184;5.786;2023-04-03T16:16:31;14.60;67.00
42199;DHT22;27868;45.184;5.786;2023-04-03T16:19:15;14.50;65.70
42199;DHT22;27868;45.184;5.786;2023-04-03T16:22:00;14.40;66.70
42199;DHT22;27868;45.184;5.786;2023-04-03T16:24:45;14.40;66.30
42199;DHT22;27868;45.184;5.786;2023-04-03T16:27:29;14.50;68.30
42199;DHT22;27868;45.184;5.786;2023-04-03T16:30:14;14.50;67.70
42199;DHT22;27868;45.184;5.786;2023-04-03T16:32:59;14.50;67.90
42199;DHT22;27868;45.184;5.786;2023-04-03T16:35:44;14.50;68.40
42199;DHT22;27868;45.184;5.786;2023-04-03T16:38:28;14.40;66.70
42199;DHT22;27868;45.184;5.786;2023-04-03T16:41:13;14.40;65.90
42199;DHT22;27868;45.184;5.786;2023-04-03T16:43:57;14.40;69.80
42199;DHT22;27868;45.184;5.786;2023-04-03T16:46:42;14.30;68.60
42199;DHT22;27868;45.184;5.786;2023-04-03T16:49:27;14.30;66.30
42199;DHT22;27868;45.184;5.786;2023-04-03T16:52:16;14.40;67.40
42199;DHT22;27868;45.184;5.786;2023-04-03T16:55:01;14.30;68.00
42199;DHT22;27868;45.184;5.786;2023-04-03T16:57:45;14.20;67.30
42199;DHT22;27868;45.184;5.786;2023-04-03T17:00:30;14.00;65.30
42199;DHT22;27868;45.184;5.786;2023-04-03T17:03:15;14.10;68.50
42199;DHT22;27868;45.184;5.786;2023-04-03T17:05:59;14.00;66.70
42199;DHT22;27868;45.184;5.786;2023-04-03T17:08:45;13.90;64.80
42199;DHT22;27868;45.184;5.786;2023-04-03T17:11:29;13.80;66.80
42199;DHT22;27868;45.184;5.786;2023-04-03T17:14:14;13.80;68.40
42199;DHT22;27868;45.184;5.786;2023-04-03T17:16:59;13.80;67.10
42199;DHT22;27868;45.184;5.786;2023-04-03T17:19:43;13.90;68.20
42199;DHT22;27868;45.184;5.786;2023-04-03T17:22:28;13.80;67.10
42199;DHT22;27868;45.184;5.786;2023-04-03T17:25:13;13.70;65.20
42199;DHT22;27868;45.184;5.786;2023-04-03T17:27:59;13.70;66.20
42199;DHT22;27868;45.184;5.786;2023-04-03T17:30:44;13.70;68.40
42199;DHT22;27868;45.184;5.786;2023-04-03T17:33:28;13.60;67.70
42199;DHT22;27868;45.184;5.786;2023-04-03T17:36:16;13.60;66.50
42199;DHT22;27868;45.184;5.786;2023-04-03T17:39:01;13.60;68.20
42199;DHT22;27868;45.184;5.786;2023-04-03T17:41:45;13.60;68.30
42199;DHT22;27868;45.184;5.786;2023-04-03T17:44:30;13.60;67.40
42199;DHT22;27868;45.184;5.786;2023-04-03T17:47:14;13.60;68.00
42199;DHT22;27868;45.184;5.786;2023-04-03T17:49:59;13.60;66.30
42199;DHT22;27868;45.184;5.786;2023-04-03T17:52:43;13.50;65.60
42199;DHT22;27868;45.184;5.786;2023-04-03T17:55:28;13.40;65.00
42199;DHT22;27868;45.184;5.786;2023-04-03T17:58:12;13.30;65.60
42199;DHT22;27868;45.184;5.786;2023-04-03T18:00:57;13.20;64.10
42199;DHT22;27868;45.184;5.786;2023-04-03T18:03:42;13.20;67.20
42199;DHT22;27868;45.184;5.786;2023-04-03T18:06:27;13.20;65.80
42199;DHT22;27868;45.184;5.786;2023-04-03T18:09:14;13.20;64.90
42199;DHT22;27868;45.184;5.786;2023-04-03T18:12:01;13.10;67.10
42199;DHT22;27868;45.184;5.786;2023-04-03T18:14:46;13.00;66.80
42199;DHT22;27868;45.184;5.786;2023-04-03T18:17:31;13.10;67.20
42199;DHT22;27868;45.184;5.786;2023-04-03T18:20:16;13.10;66.40
42199;DHT22;27868;45.184;5.786;2023-04-03T18:23:01;12.80;61.80
42199;DHT22;27868;45.184;5.786;2023-04-03T18:25:45;12.90;65.90
42199;DHT22;27868;45.184;5.786;2023-04-03T18:28:30;12.90;65.70
42199;DHT22;27868;45.184;5.786;2023-04-03T18:31:17;12.90;64.20
42199;DHT22;27868;45.184;5.786;2023-04-03T18:34:02;12.80;65.20
42199;DHT22;27868;45.184;5.786;2023-04-03T18:36:47;12.80;66.00
42199;DHT22;27868;45.184;5.786;2023-04-03T18:39:32;12.80;64.90
42199;DHT22;27868;45.184;5.786;2023-04-03T18:42:17;12.70;66.60
42199;DHT22;27868;45.184;5.786;2023-04-03T18:45:03;12.70;66.70
42199;DHT22;27868;45.184;5.786;2023-04-03T18:47:48;12.70;64.10
42199;DHT22;27868;45.184;5.786;2023-04-03T18:50:32;12.60;66.10
42199;DHT22;27868;45.184;5.786;2023-04-03T18:53:17;12.60;65.20
42199;DHT22;27868;45.184;5.786;2023-04-03T18:56:01;12.60;65.80
42199;DHT22;27868;45.184;5.786;2023-04-03T18:58:46;12.50;65.40